Decoded Metar for KFSD (SIOUX FALLS in SD, USA) (IATA:FSD) | Meteo·Mobile Aviation Weather
aviador You're here:

KFSD Decoded Metar

SIOUX FALLS in SD, USA
Report Time2018-09-21 08:56:00
UTC Time2018-09-21 09:30:42
Flight Rules mvfr MVFR
Wind300° at 11 Gusting to 25 kt
W.Decomp.*RWY 27: 10.0 kt HW 4.6 kt RCW
RWY 33: 9.0 kt HW 6.3 kt LCW
RWY 21: 1.0 kt HW 11.0 kt RCW
W.Rank300° ranks 8
Current wind is above 300° avg. (9.8)
Visibility9999 m
Phenomena:N/A
Clouds:Overcast 019 Hf
Expected CloudBase > 1,200 ft AGL from Temp-Dew spread
Ceiling1,900 ft
Temp13°C (ISA +1)
Dew Point10°C (82% RH)
AAT9.1°C
QNH1014 hPa
Density Alt1,667 ft
Elevation1,430 ft
Report Wrong Elevation
Raw Report
KFSD 210856Z AUTO 30011G25KT 10SM OVC019 13/10 A2993 RMK AO2 PK
WND 29029/0813 SLP134 T01330100 53020 $=

Extra information for KFSD:More info

Metar Taf Metar & Taf Last 4 Metars F.Rules Stats Wind Profile Meteogram Temp Stats Airport Information Weather charts Add Link Nearby VenuesMetar ALERT Operation Metar Decoded Social comments

AIRNAV info for KFSD